createdAt,value
2022-10-11T00:01:10.618Z,95882.19
2022-10-11T00:03:37.324Z,95879.00
2022-10-11T00:06:04.196Z,95885.56
2022-10-11T00:08:31.549Z,95882.03
2022-10-11T00:11:03.975Z,95879.16
2022-10-11T00:13:30.643Z,95881.06
2022-10-11T00:15:57.630Z,95887.03
2022-10-11T00:18:24.668Z,95881.56
2022-10-11T00:20:51.209Z,95874.19
2022-10-11T00:23:17.688Z,95886.38
2022-10-11T00:25:44.270Z,95883.28
2022-10-11T00:28:10.778Z,95888.59
2022-10-11T00:30:37.596Z,95887.97
2022-10-11T00:33:04.034Z,95891.63
2022-10-11T00:35:30.518Z,95894.16
2022-10-11T00:37:57.117Z,95902.19
2022-10-11T00:40:23.944Z,95897.69
2022-10-11T00:42:50.463Z,95897.53
2022-10-11T00:45:32.020Z,95899.78
2022-10-11T00:48:09.762Z,95914.84
2022-10-11T00:50:36.778Z,95903.75
2022-10-11T00:53:08.601Z,95906.63
2022-10-11T00:55:40.199Z,95915.44
2022-10-11T00:58:07.448Z,95913.31
2022-10-11T01:00:34.098Z,95914.59
2022-10-11T01:03:01.121Z,95924.88
2022-10-11T01:05:29.919Z,95926.94
2022-10-11T01:07:59.176Z,95928.53
2022-10-11T01:10:27.460Z,95919.22
2022-10-11T01:12:59.859Z,95923.88
2022-10-11T01:15:42.402Z,95924.69
2022-10-11T01:18:21.771Z,95925.47
2022-10-11T01:20:48.209Z,95925.16
2022-10-11T01:23:33.751Z,95925.16
2022-10-11T01:26:17.973Z,95924.03
2022-10-11T01:29:03.055Z,95922.91
2022-10-11T01:31:58.532Z,95924.50
2022-10-11T01:34:31.042Z,95921.75
2022-10-11T01:37:09.404Z,95926.56
2022-10-11T01:39:48.540Z,95923.84
2022-10-11T01:42:17.941Z,95923.50
2022-10-11T01:44:47.464Z,95930.59
2022-10-11T01:47:14.071Z,95929.94
2022-10-11T01:49:40.582Z,95929.59
2022-10-11T01:52:07.855Z,95932.00
2022-10-11T01:55:09.981Z,95926.06
2022-10-11T01:57:55.665Z,95925.41
2022-10-11T02:00:29.887Z,95930.19
2022-10-11T02:03:17.628Z,95931.81
2022-10-11T02:05:55.935Z,95938.06
2022-10-11T02:08:38.439Z,95931.94
2022-10-11T02:11:09.281Z,95932.09
2022-10-11T02:13:35.794Z,95935.78
2022-10-11T02:16:09.407Z,95938.97
2022-10-11T02:18:41.192Z,95934.00
2022-10-11T02:21:12.275Z,95930.94
2022-10-11T02:23:53.526Z,95929.44
2022-10-11T02:26:23.381Z,95938.94
2022-10-11T02:28:53.039Z,95935.88
2022-10-11T02:31:21.013Z,95930.88
2022-10-11T02:34:02.032Z,95930.53
2022-10-11T02:36:45.648Z,95929.41
2022-10-11T02:39:35.403Z,95926.03
2022-10-11T02:42:06.578Z,95918.28
2022-10-11T02:44:38.186Z,95920.69
2022-10-11T02:47:05.748Z,95919.56
2022-10-11T02:49:32.631Z,95914.91
2022-10-11T02:51:59.447Z,95925.03
2022-10-11T02:54:26.426Z,95917.63
2022-10-11T02:56:53.120Z,95919.56
2022-10-11T02:59:19.648Z,95916.00
2022-10-11T03:01:46.240Z,95920.69
2022-10-11T03:04:12.939Z,95923.41
2022-10-11T03:06:39.675Z,95923.75
2022-10-11T03:09:06.510Z,95926.47
2022-10-11T03:11:33.001Z,95923.75
2022-10-11T03:13:59.455Z,95922.47
2022-10-11T03:16:26.143Z,95933.41
2022-10-11T03:18:52.590Z,95935.34
2022-10-11T03:21:19.071Z,95939.19
2022-10-11T03:23:45.570Z,95941.13
2022-10-11T03:26:12.109Z,95934.06
2022-10-11T03:28:38.614Z,95939.19
2022-10-11T03:31:05.262Z,95941.94
2022-10-11T03:33:31.780Z,95947.41
2022-10-11T03:35:58.258Z,95941.94
2022-10-11T03:38:24.902Z,95942.75
2022-10-11T03:40:51.411Z,95952.53
2022-10-11T03:43:17.986Z,95951.41
2022-10-11T03:45:44.501Z,95947.88
2022-10-11T03:48:11.065Z,95951.88
2022-10-11T03:50:38.160Z,95955.09
2022-10-11T03:53:06.651Z,95958.94
2022-10-11T03:55:33.252Z,95964.53
2022-10-11T03:58:00.069Z,95958.28
2022-10-11T04:00:26.601Z,95954.41
2022-10-11T04:02:53.150Z,95961.03
2022-10-11T04:05:19.631Z,95959.88
2022-10-11T04:07:46.147Z,95953.59
2022-10-11T04:10:12.672Z,95952.50
2022-10-11T04:12:39.136Z,95959.88
2022-10-11T04:15:06.800Z,95960.69
2022-10-11T04:17:33.706Z,95963.41
2022-10-11T04:20:00.240Z,95969.34
2022-10-11T04:22:26.812Z,95959.53
2022-10-11T04:24:53.276Z,95959.22
2022-10-11T04:27:19.870Z,95964.66
2022-10-11T04:29:46.419Z,95961.94
2022-10-11T04:32:12.925Z,95957.28
2022-10-11T04:34:39.445Z,95960.03
2022-10-11T04:37:06.037Z,95967.06
2022-10-11T04:39:32.497Z,95960.03
2022-10-11T04:41:58.971Z,95963.56
2022-10-11T04:44:25.448Z,95958.88
2022-10-11T04:46:51.884Z,95967.06
2022-10-11T04:49:18.490Z,95967.06
2022-10-11T04:51:45.025Z,95969.47
2022-10-11T04:54:11.597Z,95964.84
2022-10-11T04:56:38.162Z,95972.22
2022-10-11T04:59:04.650Z,95975.44
2022-10-11T05:01:31.255Z,95972.69
2022-10-11T05:03:57.751Z,95977.03
2022-10-11T05:06:24.568Z,95971.56
2022-10-11T05:08:51.137Z,95978.63
2022-10-11T05:11:17.872Z,95979.41
2022-10-11T05:13:45.798Z,95979.75
2022-10-11T05:16:13.742Z,95987.16
2022-10-11T05:18:40.779Z,95980.16
2022-10-11T05:21:16.332Z,95978.84
2022-10-11T05:23:43.187Z,95974.16
2022-10-11T05:26:09.942Z,95970.63
2022-10-11T05:28:36.685Z,95974.81
2022-10-11T05:31:04.037Z,95978.66
2022-10-11T05:33:30.912Z,95979.34
2022-10-11T05:35:57.628Z,95984.81
2022-10-11T05:38:24.360Z,95987.06
2022-10-11T05:40:51.131Z,95984.66
2022-10-11T05:43:17.784Z,95986.28
2022-10-11T05:45:44.932Z,95990.94
2022-10-11T05:48:12.759Z,96001.06
2022-10-11T05:50:39.526Z,96010.41
2022-10-11T05:53:06.591Z,96004.59
2022-10-11T05:55:41.047Z,96000.25
2022-10-11T05:58:10.212Z,96008.47
2022-10-11T06:00:37.352Z,96012.81
2022-10-11T06:03:05.429Z,96011.97
2022-10-11T06:05:32.217Z,96012.81
2022-10-11T06:07:58.691Z,96016.00
2022-10-11T06:10:25.852Z,96013.72
2022-10-11T06:12:52.420Z,96009.88
2022-10-11T06:15:19.099Z,96006.00
2022-10-11T06:17:47.296Z,96007.59
2022-10-11T06:20:14.113Z,96005.72
2022-10-11T06:22:40.724Z,96017.41
2022-10-11T06:25:07.639Z,96018.69
2022-10-11T06:27:34.242Z,96016.59
2022-10-11T06:30:00.868Z,96019.34
2022-10-11T06:32:27.579Z,96021.59
2022-10-11T06:34:54.095Z,96020.00
2022-10-11T06:37:20.718Z,96024.66
2022-10-11T06:39:47.245Z,96022.25
2022-10-11T06:42:13.783Z,96025.31
2022-10-11T06:44:40.253Z,96028.88
2022-10-11T06:47:07.840Z,96038.19
2022-10-11T06:49:34.621Z,96031.94
2022-10-11T06:52:01.342Z,96034.66
2022-10-11T06:54:27.895Z,96034.34
2022-10-11T06:56:54.398Z,96036.38
2022-10-11T06:59:21.017Z,96034.63
2022-10-11T07:01:48.085Z,96039.09
2022-10-11T07:04:14.596Z,96042.16
2022-10-11T07:06:41.690Z,96043.22
2022-10-11T07:09:08.355Z,96048.31
2022-10-11T07:11:35.586Z,96048.75
2022-10-11T07:14:04.800Z,96051.06
2022-10-11T07:16:31.311Z,96057.41
2022-10-11T07:19:00.963Z,96059.44
2022-10-11T07:21:28.952Z,96058.69
2022-10-11T07:23:55.423Z,96065.34
2022-10-11T07:26:22.051Z,96060.28
2022-10-11T07:28:48.667Z,96064.91
2022-10-11T07:31:18.797Z,96061.75
2022-10-11T07:33:46.064Z,96052.66
2022-10-11T07:36:13.229Z,96060.31
2022-10-11T07:38:41.097Z,96065.22
2022-10-11T07:41:08.506Z,96068.69
2022-10-11T07:43:36.314Z,96062.97
2022-10-11T07:46:03.948Z,96072.94
2022-10-11T07:48:31.983Z,96077.06
2022-10-11T07:51:17.576Z,96076.38
2022-10-11T07:53:48.954Z,96073.84
2022-10-11T07:56:18.653Z,96079.13
2022-10-11T07:58:49.144Z,96072.16
2022-10-11T08:01:15.712Z,96076.63
2022-10-11T08:03:42.217Z,96075.94
2022-10-11T08:06:10.294Z,96069.78
2022-10-11T08:08:37.618Z,96077.31
2022-10-11T08:11:05.651Z,96077.78
2022-10-11T08:13:32.568Z,96081.00
2022-10-11T08:15:59.309Z,96084.19
2022-10-11T08:18:26.346Z,96086.59
2022-10-11T08:20:53.231Z,96078.69
2022-10-11T08:23:19.994Z,96079.97
2022-10-11T08:25:47.888Z,96079.16
2022-10-11T08:28:14.936Z,96082.81
2022-10-11T08:30:50.653Z,96087.47
2022-10-11T08:33:22.324Z,96090.72
2022-10-11T08:35:49.724Z,96093.59
2022-10-11T08:38:17.207Z,96096.44
2022-10-11T08:40:53.267Z,96091.44
2022-10-11T08:43:45.870Z,96097.69
2022-10-11T08:46:14.992Z,96095.84
2022-10-11T08:48:45.940Z,96097.00
2022-10-11T08:51:22.965Z,96087.53
2022-10-11T08:53:57.057Z,96094.16
2022-10-11T08:56:25.625Z,96097.69
2022-10-11T08:59:12.094Z,96094.03
2022-10-11T09:01:44.602Z,96091.19
2022-10-11T09:04:14.560Z,96097.81
2022-10-11T09:06:53.845Z,96091.72
2022-10-11T09:09:36.780Z,96086.59
2022-10-11T09:12:17.342Z,96102.09
2022-10-11T09:15:11.818Z,96093.44
2022-10-11T09:18:00.162Z,96097.66
2022-10-11T09:20:35.759Z,96096.19
2022-10-11T09:23:35.169Z,96102.44
2022-10-11T09:26:10.840Z,96095.16
2022-10-11T09:29:01.372Z,96094.03
2022-10-11T09:31:28.671Z,96083.59
2022-10-11T09:33:55.785Z,96090.94
2022-10-11T09:36:37.594Z,96096.91
2022-10-11T09:39:18.374Z,96089.00
2022-10-11T09:42:02.203Z,96079.75
2022-10-11T09:44:50.167Z,96086.69
2022-10-11T09:47:20.158Z,96093.22
2022-10-11T09:49:52.883Z,96085.91
2022-10-11T09:52:22.718Z,96093.19
2022-10-11T09:54:55.894Z,96088.63
2022-10-11T09:57:28.162Z,96080.25
2022-10-11T10:00:06.956Z,96078.50
2022-10-11T10:02:44.964Z,96083.75
2022-10-11T10:05:11.382Z,96080.19
2022-10-11T10:07:40.041Z,96074.22
2022-10-11T10:10:27.094Z,96076.72
2022-10-11T10:12:59.342Z,96078.06
2022-10-11T10:15:34.801Z,96080.53
2022-10-11T10:18:02.914Z,96078.69
2022-10-11T10:20:35.147Z,96078.00
2022-10-11T10:23:23.883Z,96078.53
2022-10-11T10:25:50.572Z,96077.69
2022-10-11T10:28:25.877Z,96076.28
2022-10-11T10:30:53.740Z,96078.06
2022-10-11T10:33:22.286Z,96077.00
2022-10-11T10:35:53.741Z,96073.63
2022-10-11T10:38:34.844Z,96072.91
2022-10-11T10:41:04.453Z,96072.75
2022-10-11T10:43:36.095Z,96066.66
2022-10-11T10:46:37.059Z,96066.94
2022-10-11T10:49:48.502Z,96069.22
2022-10-11T10:52:17.852Z,96060.41
2022-10-11T10:54:52.065Z,96062.59
2022-10-11T10:57:32.051Z,96054.53
2022-10-11T11:00:15.719Z,96055.13
2022-10-11T11:03:03.767Z,96053.59
2022-10-11T11:05:55.383Z,96048.88
2022-10-11T11:08:27.982Z,96053.16
2022-10-11T11:11:18.860Z,96051.91
2022-10-11T11:13:58.423Z,96052.63
2022-10-11T11:16:49.433Z,96049.97
2022-10-11T11:19:18.604Z,96045.69
2022-10-11T11:22:04.390Z,96048.16
2022-10-11T11:24:50.736Z,96045.84
2022-10-11T11:27:48.025Z,96047.59
2022-10-11T11:30:22.482Z,96038.41
2022-10-11T11:33:03.635Z,96038.94
2022-10-11T11:35:39.175Z,96030.81
2022-10-11T11:38:46.438Z,96030.53
2022-10-11T11:41:55.250Z,96035.31
2022-10-11T11:44:28.175Z,96026.75
2022-10-11T11:47:09.307Z,96020.00
2022-10-11T11:49:38.504Z,96025.44
2022-10-11T11:52:15.646Z,96029.34
2022-10-11T11:55:03.736Z,96030.81
2022-10-11T11:57:57.917Z,96031.53
2022-10-11T12:00:30.778Z,96024.88
2022-10-11T12:03:11.765Z,96023.25
2022-10-11T12:05:38.504Z,96027.19
2022-10-11T12:08:27.932Z,96026.03
2022-10-11T12:10:59.617Z,96025.59
2022-10-11T12:13:32.372Z,96031.63
2022-10-11T12:16:08.101Z,96029.28
2022-10-11T12:18:39.336Z,96019.63
2022-10-11T12:21:20.860Z,96024.00
2022-10-11T12:23:49.833Z,96030.25
2022-10-11T12:26:28.611Z,96026.03
2022-10-11T12:29:02.346Z,96021.38
2022-10-11T12:31:32.070Z,96021.09
2022-10-11T12:34:00.978Z,96016.47
2022-10-11T12:36:47.560Z,96006.44
2022-10-11T12:39:19.966Z,96014.81
2022-10-11T12:41:49.486Z,96012.03
2022-10-11T12:44:19.166Z,95997.16
2022-10-11T12:46:51.721Z,96003.47
2022-10-11T12:49:30.286Z,95997.94
2022-10-11T12:52:18.321Z,96011.44
2022-10-11T12:55:02.775Z,96000.53
2022-10-11T12:58:04.309Z,96009.16
2022-10-11T13:00:34.121Z,96005.69
2022-10-11T13:03:00.527Z,95994.94
2022-10-11T13:05:44.943Z,95998.88
2022-10-11T13:08:18.761Z,96003.88
2022-10-11T13:10:47.538Z,95994.81
2022-10-11T13:13:31.971Z,96004.63
2022-10-11T13:16:05.198Z,96003.78
2022-10-11T13:18:31.925Z,96004.16
2022-10-11T13:20:58.446Z,96003.78
2022-10-11T13:23:35.122Z,96004.94
2022-10-11T13:26:02.475Z,96002.22
2022-10-11T13:28:34.146Z,96003.78
2022-10-11T13:31:04.175Z,96000.28
2022-10-11T13:33:32.465Z,96001.69
2022-10-11T13:36:01.709Z,95998.75
2022-10-11T13:38:34.864Z,96002.78
2022-10-11T13:41:05.087Z,96000.53
2022-10-11T13:43:32.312Z,96000.94
2022-10-11T13:46:00.589Z,96000.09
2022-10-11T13:48:31.741Z,95999.59
2022-10-11T13:51:34.921Z,96001.84
2022-10-11T13:54:13.613Z,95996.72
2022-10-11T13:56:49.017Z,96000.66
2022-10-11T13:59:21.622Z,95999.00
2022-10-11T14:01:49.846Z,95993.84
2022-10-11T14:04:16.799Z,95987.09
2022-10-11T14:06:43.210Z,95982.31
2022-10-11T14:09:26.385Z,95984.59
2022-10-11T14:11:53.044Z,95980.59
2022-10-11T14:14:30.058Z,95987.94
2022-10-11T14:17:04.369Z,95992.59
2022-10-11T14:19:31.127Z,95990.94
2022-10-11T14:21:58.004Z,95992.50
2022-10-11T14:24:24.499Z,95994.00
2022-10-11T14:26:53.384Z,95992.34
2022-10-11T14:29:34.538Z,95989.56
2022-10-11T14:32:18.901Z,95995.50
2022-10-11T14:34:47.637Z,95993.13
2022-10-11T14:37:18.325Z,95998.56
2022-10-11T14:39:45.480Z,95988.75
2022-10-11T14:42:11.924Z,95988.69
2022-10-11T14:44:38.682Z,95989.78
2022-10-11T14:47:06.095Z,95990.56
2022-10-11T14:49:36.337Z,95995.72
2022-10-11T14:52:05.114Z,95996.91
2022-10-11T14:54:33.499Z,95993.63
2022-10-11T14:57:03.579Z,95998.16
2022-10-11T14:59:34.204Z,95997.81
2022-10-11T15:02:01.733Z,95999.41
2022-10-11T15:04:28.585Z,96001.63
2022-10-11T15:06:56.397Z,95997.56
2022-10-11T15:09:27.917Z,95992.72
2022-10-11T15:11:55.030Z,95991.03
2022-10-11T15:14:23.122Z,95998.81
2022-10-11T15:16:49.653Z,95994.47
2022-10-11T15:19:18.915Z,95993.75
2022-10-11T15:21:45.646Z,95996.09
2022-10-11T15:24:12.947Z,96000.00
2022-10-11T15:26:39.964Z,95996.34
2022-10-11T15:29:09.892Z,95991.84
2022-10-11T15:31:36.391Z,95985.00
2022-10-11T15:34:03.080Z,95995.59
2022-10-11T15:36:29.757Z,95989.78
2022-10-11T15:38:56.497Z,95997.34
2022-10-11T15:41:23.104Z,95997.97
2022-10-11T15:43:49.685Z,96000.44
2022-10-11T15:46:20.071Z,95994.78
2022-10-11T15:48:47.485Z,96006.72
2022-10-11T15:51:15.356Z,96005.78
2022-10-11T15:53:41.965Z,96004.78
2022-10-11T15:56:12.426Z,96003.78
2022-10-11T15:58:40.584Z,96002.88
2022-10-11T16:01:08.845Z,96011.53
2022-10-11T16:03:36.137Z,96015.19
2022-10-11T16:06:05.524Z,96013.44
2022-10-11T16:08:33.108Z,96009.47
2022-10-11T16:11:00.534Z,96014.06
2022-10-11T16:13:27.196Z,96009.25
2022-10-11T16:15:54.078Z,96016.28
2022-10-11T16:18:21.504Z,96015.00
2022-10-11T16:20:50.027Z,96014.56
2022-10-11T16:23:16.592Z,96014.09
2022-10-11T16:25:43.353Z,96015.25
2022-10-11T16:28:10.454Z,96014.44
2022-10-11T16:30:42.317Z,96020.28
2022-10-11T16:33:09.230Z,96014.78
2022-10-11T16:35:35.946Z,96014.00
2022-10-11T16:38:02.616Z,96010.00
2022-10-11T16:40:29.080Z,96015.84
2022-10-11T16:42:56.085Z,96010.34
2022-10-11T16:45:23.012Z,96012.31
2022-10-11T16:47:50.155Z,96014.59
2022-10-11T16:50:16.712Z,96011.75
2022-10-11T16:52:43.329Z,96022.28
2022-10-11T16:55:10.267Z,96026.53
2022-10-11T16:57:37.000Z,96021.75
2022-10-11T17:00:06.683Z,96025.16
2022-10-11T17:02:33.361Z,96031.34
2022-10-11T17:05:00.174Z,96038.31
2022-10-11T17:07:27.592Z,96037.88
2022-10-11T17:09:54.075Z,96033.88
2022-10-11T17:12:23.680Z,96039.34
2022-10-11T17:14:51.157Z,96044.84
2022-10-11T17:17:18.790Z,96038.47
2022-10-11T17:19:45.787Z,96036.41
2022-10-11T17:22:14.908Z,96036.75
2022-10-11T17:24:41.443Z,96035.50
2022-10-11T17:27:08.539Z,96030.69
2022-10-11T17:29:35.461Z,96032.56
2022-10-11T17:32:02.367Z,96038.25
2022-10-11T17:34:28.979Z,96038.59
2022-10-11T17:36:55.448Z,96030.25
2022-10-11T17:39:23.629Z,96036.44
2022-10-11T17:41:50.287Z,96035.94
2022-10-11T17:44:17.273Z,96031.41
2022-10-11T17:46:43.871Z,96036.44
2022-10-11T17:49:11.598Z,96040.19
2022-10-11T17:51:39.159Z,96038.13
2022-10-11T17:54:05.685Z,96039.63
2022-10-11T17:56:37.747Z,96043.50
2022-10-11T17:59:04.732Z,96032.06
2022-10-11T18:01:31.411Z,96035.94
2022-10-11T18:04:00.769Z,96044.16
2022-10-11T18:06:29.946Z,96042.25
2022-10-11T18:08:59.204Z,96033.69
2022-10-11T18:11:25.766Z,96030.59
2022-10-11T18:13:52.879Z,96032.19
2022-10-11T18:16:23.216Z,96034.13
2022-10-11T18:18:50.268Z,96033.78
2022-10-11T18:21:16.814Z,96026.34
2022-10-11T18:23:43.276Z,96029.09
2022-10-11T18:26:13.709Z,96025.56
2022-10-11T18:28:41.065Z,96027.50
2022-10-11T18:31:14.250Z,96023.50
2022-10-11T18:33:42.078Z,96018.38
2022-10-11T18:36:10.140Z,96026.94
2022-10-11T18:38:36.763Z,96020.66
2022-10-11T18:41:08.028Z,96022.03
2022-10-11T18:43:35.100Z,96014.59
2022-10-11T18:46:09.845Z,96005.91
2022-10-11T18:48:36.415Z,96021.09
2022-10-11T18:51:07.859Z,96017.47
2022-10-11T18:53:35.577Z,96021.34
2022-10-11T18:56:04.568Z,96024.75
2022-10-11T18:58:32.591Z,96014.13
2022-10-11T19:01:11.297Z,96022.25
2022-10-11T19:03:38.621Z,96023.03
2022-10-11T19:06:07.964Z,96026.13
2022-10-11T19:08:34.908Z,96017.88
2022-10-11T19:11:08.936Z,96017.88
2022-10-11T19:13:35.872Z,96021.78
2022-10-11T19:16:05.421Z,96015.50
2022-10-11T19:18:32.719Z,96026.13
2022-10-11T19:21:08.104Z,96015.50
2022-10-11T19:23:36.885Z,96023.38
2022-10-11T19:26:03.785Z,96011.63
2022-10-11T19:28:30.650Z,96020.63
2022-10-11T19:31:05.721Z,96016.31
2022-10-11T19:33:33.399Z,96021.78
2022-10-11T19:36:01.699Z,96016.66
2022-10-11T19:38:29.129Z,96017.44
2022-10-11T19:40:55.828Z,96020.84
2022-10-11T19:43:23.353Z,96018.13
2022-10-11T19:45:49.799Z,96014.59
2022-10-11T19:48:16.402Z,96020.84
2022-10-11T19:50:42.902Z,96011.03
2022-10-11T19:53:09.490Z,96017.66
2022-10-11T19:55:36.087Z,96023.50
2022-10-11T19:58:08.069Z,96013.66
2022-10-11T20:00:34.862Z,96015.16
2022-10-11T20:03:01.433Z,96020.97
2022-10-11T20:05:28.028Z,96019.72
2022-10-11T20:07:54.504Z,96020.38
2022-10-11T20:10:21.011Z,96017.88
2022-10-11T20:12:47.538Z,96023.22
2022-10-11T20:15:14.154Z,96009.06
2022-10-11T20:17:40.659Z,96017.50
2022-10-11T20:20:08.061Z,96019.63
2022-10-11T20:22:35.159Z,96021.00
2022-10-11T20:25:20.662Z,96024.63
2022-10-11T20:28:05.930Z,96025.63
2022-10-11T20:30:51.309Z,96032.09
2022-10-11T20:33:36.167Z,96039.72
2022-10-11T20:36:23.008Z,96044.25
2022-10-11T20:39:08.266Z,96047.69
2022-10-11T20:41:53.506Z,96046.75
2022-10-11T20:44:38.596Z,96043.53
2022-10-11T20:47:23.735Z,96042.72
2022-10-11T20:50:09.305Z,96050.16
2022-10-11T20:52:54.376Z,96043.06
2022-10-11T20:55:39.443Z,96047.75
2022-10-11T20:58:24.263Z,96041.47
2022-10-11T21:01:14.369Z,96048.88
2022-10-11T21:04:01.319Z,96042.59
2022-10-11T21:06:48.126Z,96044.53
2022-10-11T21:09:33.543Z,96043.28
2022-10-11T21:12:19.121Z,96044.41
2022-10-11T21:15:04.595Z,96041.66
2022-10-11T21:17:51.055Z,96033.78
2022-10-11T21:20:42.690Z,96032.19
2022-10-11T21:23:27.795Z,96025.94
2022-10-11T21:26:14.488Z,96027.06
2022-10-11T21:28:59.821Z,96025.44
2022-10-11T21:31:44.904Z,96023.38
2022-10-11T21:34:29.847Z,96015.50
2022-10-11T21:37:15.196Z,96022.47
2022-10-11T21:40:00.127Z,96020.41
2022-10-11T21:42:45.488Z,96013.19
2022-10-11T21:45:30.834Z,96013.38
2022-10-11T21:48:15.808Z,96002.63
2022-10-11T21:51:00.962Z,96010.25
2022-10-11T21:53:46.111Z,96006.91
2022-10-11T21:56:31.293Z,96001.63
2022-10-11T21:59:16.258Z,96007.31
2022-10-11T22:02:02.245Z,96006.69
2022-10-11T22:04:47.545Z,96014.28
2022-10-11T22:07:32.880Z,96012.56
2022-10-11T22:10:18.326Z,96008.06
2022-10-11T22:13:04.144Z,96009.81
2022-10-11T22:15:49.521Z,96010.81
2022-10-11T22:18:35.060Z,96009.06
2022-10-11T22:21:22.187Z,96007.34
2022-10-11T22:24:07.389Z,96009.13
2022-10-11T22:26:52.266Z,96012.19
2022-10-11T22:29:37.531Z,96001.91
2022-10-11T22:32:22.657Z,96011.56
2022-10-11T22:35:08.136Z,96009.16
2022-10-11T22:37:53.634Z,96009.16
2022-10-11T22:40:40.059Z,96004.50
2022-10-11T22:43:25.645Z,95999.81
2022-10-11T22:46:10.892Z,95995.16
2022-10-11T22:48:56.040Z,95993.72
2022-10-11T22:51:41.331Z,95989.03
2022-10-11T22:54:26.746Z,95992.72
2022-10-11T22:57:11.908Z,95997.41
2022-10-11T22:59:57.378Z,95998.97
2022-10-11T23:02:42.323Z,95996.75
2022-10-11T23:05:27.171Z,95989.00
2022-10-11T23:08:12.605Z,95996.88
2022-10-11T23:11:05.548Z,95994.94
2022-10-11T23:13:50.655Z,95999.75
2022-10-11T23:16:35.579Z,95993.16
2022-10-11T23:19:20.679Z,95993.63
2022-10-11T23:22:05.922Z,96000.38
2022-10-11T23:24:50.755Z,95998.09
2022-10-11T23:27:36.336Z,96005.50
2022-10-11T23:30:21.399Z,96003.56
2022-10-11T23:33:06.310Z,96001.28
2022-10-11T23:35:51.673Z,96000.97
2022-10-11T23:38:36.752Z,96000.66
2022-10-11T23:41:23.102Z,96009.00
2022-10-11T23:44:08.291Z,96008.66
2022-10-11T23:46:53.355Z,96006.41
2022-10-11T23:49:38.914Z,96015.09
2022-10-11T23:52:23.743Z,96019.44
2022-10-11T23:55:09.240Z,96018.78
2022-10-11T23:57:54.390Z,96019.56
